Time;durP1;ratioP1;P1;durP2;ratioP2;P2;SDS_P1;SDS_P2;PMS_P1;PMS_P2;Temp;Humidity;BMP_temperature;BMP_pressure;BME280_temperature;BME280_humidity;BME280_pressure;Samples;Min_cycle;Max_cycle;Signal;HPM_P1;HPM_P2
2022/04/24 00:01:52;;;;;;;;;10.33;10.00;;;;;17.72;50.48;99501.94;5079099;27;45745;-83
2022/04/24 00:04:17;;;;;;;;;14.67;12.67;;;;;17.66;50.46;99486.34;5084207;27;45471;-83
2022/04/24 00:06:46;;;;;;;;;12.00;12.00;;;;;17.93;50.81;99536.84;5076321;27;45454;-83
2022/04/24 00:09:13;;;;;;;;;10.67;9.67;;;;;17.61;51.17;99487.78;5090102;27;45457;-83
2022/04/24 00:11:38;;;;;;;;;17.67;16.67;;;;;17.74;50.69;99509.88;5075338;27;45643;-83
2022/04/24 00:14:09;;;;;;;;;18.67;17.67;;;;;17.49;50.81;99477.16;5094700;27;45420;-83
2022/04/24 00:16:35;;;;;;;;;16.33;15.00;;;;;17.71;50.93;99508.31;5084677;27;45400;-83
2022/04/24 00:19:00;;;;;;;;;18.67;15.67;;;;;17.63;50.72;99508.19;5084792;27;45504;-83
2022/04/24 00:21:25;;;;;;;;;17.00;17.00;;;;;17.34;50.80;99457.00;5059348;28;45509;-83
2022/04/24 00:23:51;;;;;;;;;18.67;18.00;;;;;17.61;51.23;99504.78;5058828;28;47443;-83
2022/04/24 00:26:16;;;;;;;;;19.00;14.67;;;;;17.52;51.67;99498.41;5086650;27;49830;-83
2022/04/24 00:28:41;;;;;;;;;13.00;11.67;;;;;17.37;51.54;99469.34;5089157;27;45696;-83
2022/04/24 00:31:07;;;;;;;;;13.67;12.67;;;;;17.61;51.62;99518.25;5088926;27;45417;-83
2022/04/24 00:33:32;;;;;;;;;16.33;12.67;;;;;17.56;51.51;99519.66;5096878;27;45475;-83
2022/04/24 00:35:57;;;;;;;;;8.67;8.67;;;;;17.52;51.41;99519.09;5077770;27;45514;-83
2022/04/24 00:38:23;;;;;;;;;11.33;11.33;;;;;17.38;51.52;99504.22;5097588;27;45385;-83
2022/04/24 00:40:48;;;;;;;;;16.67;11.00;;;;;17.22;51.77;99485.91;5096360;27;45548;-83
2022/04/24 00:43:14;;;;;;;;;14.33;11.67;;;;;17.30;51.88;99499.53;5093243;27;45419;-83
2022/04/24 00:45:40;;;;;;;;;12.67;12.00;;;;;17.04;51.52;99476.81;5084795;27;45570;-83
2022/04/24 00:48:06;;;;;;;;;9.33;9.33;;;;;17.07;51.68;99485.50;5074819;27;45445;-83
2022/04/24 00:50:31;;;;;;;;;19.33;15.00;;;;;17.02;51.66;99493.13;5085662;27;45521;-83
2022/04/24 00:52:57;;;;;;;;;11.67;11.67;;;;;16.84;51.73;99454.44;5085032;27;45622;-83
2022/04/24 00:55:26;;;;;;;;;13.00;10.33;;;;;16.97;52.07;99481.91;5084215;27;45226;-83
2022/04/24 00:57:51;;;;;;;;;14.67;12.67;;;;;16.92;51.79;99478.78;5084678;27;45539;-83
2022/04/24 01:00:17;;;;;;;;;19.67;13.33;;;;;17.16;51.87;99526.00;5088833;27;45409;-83
2022/04/24 01:02:42;;;;;;;;;10.33;10.33;;;;;17.14;52.22;99536.06;5077699;27;47399;-83
2022/04/24 01:05:08;;;;;;;;;10.67;9.67;;;;;17.14;52.18;99539.63;5085498;27;45357;-83
2022/04/24 01:07:34;;;;;;;;;10.67;10.00;;;;;16.79;52.07;99487.13;5064269;27;45526;-83
2022/04/24 01:10:00;;;;;;;;;14.00;13.00;;;;;16.76;52.20;99483.81;5075486;27;45596;-83
2022/04/24 01:12:25;;;;;;;;;12.67;12.33;;;;;16.67;52.30;99480.13;5083551;27;46046;-83
2022/04/24 01:14:51;;;;;;;;;12.33;11.33;;;;;16.33;52.10;99442.78;5077145;27;45420;-83
2022/04/24 01:17:16;;;;;;;;;10.33;10.33;;;;;16.99;52.04;99541.00;5099141;27;45410;-83
2022/04/24 01:19:42;;;;;;;;;8.00;6.67;;;;;16.60;51.84;99479.84;5100362;27;45325;-83
2022/04/24 01:22:07;;;;;;;;;16.33;11.33;;;;;16.45;52.05;99465.03;5099742;27;45468;-83
2022/04/24 01:24:33;;;;;;;;;12.00;8.00;;;;;16.42;51.70;99465.31;5100275;27;45336;-84
2022/04/24 01:26:58;;;;;;;;;13.33;11.00;;;;;16.90;52.17;99553.44;5082547;27;45539;-83
2022/04/24 01:29:24;;;;;;;;;13.00;10.00;;;;;16.83;52.42;99545.09;5099837;27;45357;-83
2022/04/24 01:31:50;;;;;;;;;10.67;9.67;;;;;16.86;51.81;99549.34;5091948;27;45553;-83
2022/04/24 01:34:17;;;;;;;;;10.67;10.67;;;;;16.84;51.81;99556.69;5089786;27;45605;-83
2022/04/24 01:36:42;;;;;;;;;11.67;10.67;;;;;16.83;52.02;99558.53;5085402;27;45489;-83
2022/04/24 01:39:08;;;;;;;;;15.67;11.33;;;;;16.57;51.92;99512.38;5096591;27;45401;-83
2022/04/24 01:41:34;;;;;;;;;10.00;10.00;;;;;16.49;51.85;99512.22;5087233;27;45476;-83
2022/04/24 01:43:59;;;;;;;;;9.33;9.33;;;;;16.79;52.12;99556.25;5061599;28;46018;-83
2022/04/24 01:46:25;;;;;;;;;11.00;11.00;;;;;16.78;52.19;99551.81;5079678;27;45541;-83
2022/04/24 01:48:51;;;;;;;;;8.67;8.33;;;;;16.75;51.95;99569.09;5091236;27;45376;-83
2022/04/24 01:51:16;;;;;;;;;9.33;9.00;;;;;16.67;52.06;99550.94;5088285;27;46536;-83
2022/04/24 01:53:43;;;;;;;;;11.00;11.00;;;;;16.70;52.21;99555.19;5066736;27;45458;-83
2022/04/24 01:56:09;;;;;;;;;11.00;11.00;;;;;16.63;52.25;99546.81;5081401;27;45357;-83
2022/04/24 01:58:36;;;;;;;;;11.00;10.33;;;;;16.70;52.10;99567.81;5081781;27;45660;-83
2022/04/24 02:01:02;;;;;;;;;14.33;11.00;;;;;16.37;51.86;99516.81;5098753;27;45412;-83
2022/04/24 02:03:29;;;;;;;;;10.67;9.33;;;;;16.59;52.06;99552.59;5082182;27;45369;-83
2022/04/24 02:05:55;;;;;;;;;7.33;7.33;;;;;16.15;52.11;99495.47;5073878;28;45294;-84
2022/04/24 02:08:21;;;;;;;;;11.33;8.00;;;;;15.74;51.51;99444.34;5085367;27;45206;-83
2022/04/24 02:10:46;;;;;;;;;11.33;10.33;;;;;16.58;51.90;99569.72;5079009;28;45349;-83
2022/04/24 02:13:12;;;;;;;;;10.67;10.67;;;;;16.56;51.95;99577.94;5073134;27;45369;-83
2022/04/24 02:15:37;;;;;;;;;11.00;11.00;;;;;16.45;52.04;99561.88;5098984;27;45424;-83
2022/04/24 02:18:03;;;;;;;;;11.00;9.33;;;;;16.51;51.84;99590.09;5092108;27;45262;-83
2022/04/24 02:20:29;;;;;;;;;9.33;9.33;;;;;16.06;51.84;99512.41;5090419;27;45263;-83
2022/04/24 02:22:57;;;;;;;;;7.67;7.67;;;;;16.48;52.07;99576.88;5072173;27;45943;-83
2022/04/24 02:25:26;;;;;;;;;8.50;8.50;;;;;16.17;52.12;99544.59;5088808;27;45377;-83
2022/04/24 02:27:55;;;;;;;;;8.67;7.33;;;;;16.07;52.29;99535.63;5089935;27;45878;-83
2022/04/24 02:30:26;;;;;;;;;7.67;7.33;;;;;16.32;52.56;99583.59;5087180;27;46087;-83
2022/04/24 02:32:52;;;;;;;;;10.33;9.33;;;;;16.08;52.22;99542.69;5086365;27;45445;-83
2022/04/24 02:35:17;;;;;;;;;11.00;8.67;;;;;16.30;52.38;99590.09;5095048;27;45436;-83
2022/04/24 02:37:44;;;;;;;;;10.00;9.00;;;;;16.06;52.70;99550.91;5083114;27;45314;-83
2022/04/24 02:40:10;;;;;;;;;11.00;10.00;;;;;15.95;52.47;99546.44;5079977;27;47316;-83
2022/04/24 02:42:36;;;;;;;;;9.33;9.33;;;;;15.86;53.08;99541.00;5083552;27;45432;-83
2022/04/24 02:45:06;;;;;;;;;9.33;9.33;;;;;16.17;53.01;99588.44;5060172;28;45763;-83
2022/04/24 02:47:32;;;;;;;;;10.33;10.00;;;;;15.77;53.17;99532.72;5078230;27;45472;-83
2022/04/24 02:49:57;;;;;;;;;12.00;10.33;;;;;15.99;52.93;99571.19;5084012;27;46287;-83
2022/04/24 02:52:23;;;;;;;;;11.33;10.00;;;;;15.73;53.08;99531.31;5060019;28;45497;-83
2022/04/24 02:54:48;;;;;;;;;11.67;10.67;;;;;15.85;53.21;99564.34;5078653;28;45283;-83
2022/04/24 02:57:13;;;;;;;;;9.33;9.33;;;;;16.00;53.51;99594.44;5096257;27;45616;-83
2022/04/24 02:59:42;;;;;;;;;12.33;10.33;;;;;15.53;53.56;99537.47;5098499;27;46461;-83
2022/04/24 03:02:08;;;;;;;;;11.33;11.33;;;;;16.00;53.57;99607.88;5099290;27;45483;-83
2022/04/24 03:04:34;;;;;;;;;13.00;10.33;;;;;15.26;53.37;99498.50;5095825;27;45350;-83
2022/04/24 03:07:00;;;;;;;;;8.67;8.33;;;;;15.76;53.20;99578.53;5084282;27;45251;-83
2022/04/24 03:09:25;;;;;;;;;15.67;12.33;;;;;15.65;53.63;99575.88;5088528;27;46573;-83
2022/04/24 03:11:51;;;;;;;;;10.67;10.67;;;;;15.91;53.86;99612.16;5086268;27;45251;-83
2022/04/24 03:14:16;;;;;;;;;11.33;10.33;;;;;15.39;53.91;99531.41;5086080;27;46091;-83
2022/04/24 03:16:41;;;;;;;;;10.00;10.00;;;;;15.78;54.39;99592.69;5089345;27;45277;-83
2022/04/24 03:19:07;;;;;;;;;13.00;13.00;;;;;15.39;54.12;99534.09;5073109;28;47585;-83
2022/04/24 03:21:32;;;;;;;;;14.33;12.33;;;;;15.43;54.52;99556.19;5082973;27;45618;-83
2022/04/24 03:23:57;;;;;;;;;15.00;12.00;;;;;15.78;54.57;99617.72;5085391;27;45254;-83
2022/04/24 03:26:23;;;;;;;;;15.67;11.67;;;;;15.67;54.80;99600.78;5077947;27;45504;-83
2022/04/24 03:28:48;;;;;;;;;11.33;10.33;;;;;15.26;55.06;99548.66;5076354;27;46879;-83
2022/04/24 03:31:13;;;;;;;;;12.00;11.33;;;;;15.65;55.27;99618.84;5087882;27;45558;-83
2022/04/24 03:33:39;;;;;;;;;17.33;15.00;;;;;15.44;55.58;99584.72;5059789;27;45917;-83
2022/04/24 03:36:04;;;;;;;;;12.67;11.33;;;;;15.14;55.88;99545.16;5084143;27;45350;-83
2022/04/24 03:38:29;;;;;;;;;12.00;11.33;;;;;15.54;55.45;99614.34;5087758;27;45566;-83
2022/04/24 03:40:56;;;;;;;;;15.33;14.00;;;;;15.38;55.76;99593.28;5090167;27;46717;-83
2022/04/24 03:43:21;;;;;;;;;14.33;13.33;;;;;15.48;55.88;99609.50;5081688;27;45511;-83
2022/04/24 03:45:47;;;;;;;;;10.67;10.67;;;;;15.32;55.70;99591.97;5093797;27;45765;-83
2022/04/24 03:48:12;;;;;;;;;18.67;15.33;;;;;15.28;56.29;99584.28;5084202;27;45646;-83
2022/04/24 03:50:38;;;;;;;;;12.33;12.00;;;;;15.18;56.21;99566.25;5087855;27;45428;-83
2022/04/24 03:53:03;;;;;;;;;17.33;13.67;;;;;14.97;56.60;99547.38;5091299;27;45528;-83
2022/04/24 03:55:29;;;;;;;;;15.67;15.67;;;;;15.43;56.51;99636.72;5078959;27;45387;-83
2022/04/24 03:57:54;;;;;;;;;13.67;13.67;;;;;15.25;56.61;99604.19;5077800;27;45467;-83
2022/04/24 04:00:20;;;;;;;;;14.00;14.00;;;;;15.32;56.37;99632.22;5060090;28;45899;-83
2022/04/24 04:02:47;;;;;;;;;20.67;15.67;;;;;14.86;56.90;99565.31;5078310;27;45564;-83
2022/04/24 04:05:13;;;;;;;;;18.67;17.67;;;;;14.68;56.60;99543.50;5078696;27;45485;-83
2022/04/24 04:07:38;;;;;;;;;16.67;14.67;;;;;14.68;57.55;99543.50;5077562;28;45977;-83
2022/04/24 04:10:04;;;;;;;;;16.00;15.00;;;;;14.86;57.21;99576.06;5081078;27;45387;-83
2022/04/24 04:12:30;;;;;;;;;14.67;14.67;;;;;15.23;57.26;99646.41;5089370;27;45489;-83
2022/04/24 04:14:55;;;;;;;;;19.33;16.67;;;;;14.85;57.18;99583.25;5091153;27;45757;-83
2022/04/24 04:17:20;;;;;;;;;21.00;17.00;;;;;14.60;57.32;99544.13;5078331;27;46191;-83
2022/04/24 04:19:46;;;;;;;;;18.00;15.00;;;;;14.36;57.24;99515.56;5059354;27;48488;-83
2022/04/24 04:22:11;;;;;;;;;13.00;13.00;;;;;14.31;57.04;99511.56;5082720;27;45437;-83
2022/04/24 04:24:37;;;;;;;;;18.33;17.00;;;;;15.15;57.38;99651.53;5088836;27;45663;-83
2022/04/24 04:27:03;;;;;;;;;24.50;18.50;;;;;14.71;57.12;99583.50;5086004;27;45995;-83
2022/04/24 04:29:29;;;;;;;;;17.33;15.67;;;;;15.11;57.16;99652.75;5077452;27;45449;-83
2022/04/24 04:31:54;;;;;;;;;19.00;18.33;;;;;15.01;57.43;99641.03;5079555;27;45297;-83
2022/04/24 04:34:19;;;;;;;;;20.67;20.67;;;;;14.83;57.45;99609.34;5091641;27;45615;-83
2022/04/24 04:36:45;;;;;;;;;16.67;14.67;;;;;15.05;57.61;99662.13;5072946;27;47273;-83
2022/04/24 04:39:10;;;;;;;;;16.00;14.33;;;;;15.02;57.77;99665.06;5097524;27;45397;-83
2022/04/24 04:41:36;;;;;;;;;18.67;17.33;;;;;15.01;57.53;99663.38;5078732;27;45499;-83
2022/04/24 04:44:01;;;;;;;;;19.33;16.00;;;;;14.86;57.84;99646.66;5081321;27;45207;-83
2022/04/24 04:46:26;;;;;;;;;18.33;17.33;;;;;13.99;57.59;99501.53;5090478;27;46146;-83
2022/04/24 04:48:52;;;;;;;;;21.00;15.67;;;;;14.73;58.28;99629.84;5077586;27;45213;-83
2022/04/24 04:51:17;;;;;;;;;18.33;18.33;;;;;14.48;58.05;99593.34;5094208;27;45249;-83
2022/04/24 04:53:42;;;;;;;;;19.67;17.33;;;;;14.70;57.78;99636.31;5098059;27;45534;-83
2022/04/24 04:56:08;;;;;;;;;19.67;18.00;;;;;14.90;57.64;99674.09;5084205;27;46404;-84
2022/04/24 04:58:33;;;;;;;;;68.75;53.25;;;;;14.42;57.74;99600.03;5080380;27;45373;-85
2022/04/24 05:01:00;;;;;;;;;45.25;38.75;;;;;14.43;58.13;99614.28;5097262;27;46464;-83
2022/04/24 05:03:26;;;;;;;;;20.00;15.67;;;;;14.84;57.79;99686.16;5076422;27;45570;-84
2022/04/24 05:05:51;;;;;;;;;18.33;18.33;;;;;14.25;57.81;99589.75;5088894;27;46152;-84
2022/04/24 05:08:16;;;;;;;;;18.33;16.67;;;;;14.51;57.75;99636.81;5091615;27;45561;-84
2022/04/24 05:10:42;;;;;;;;;19.00;16.00;;;;;14.84;57.95;99686.16;5085591;27;45442;-84
2022/04/24 05:13:07;;;;;;;;;18.67;17.33;;;;;14.59;57.84;99655.06;5085543;27;45605;-84
2022/04/24 05:15:33;;;;;;;;;19.33;16.00;;;;;14.78;58.08;99708.13;5097287;27;46104;-83
2022/04/24 05:17:58;;;;;;;;;17.33;16.33;;;;;14.66;58.05;99671.53;5094722;27;45309;-85
2022/04/24 05:20:23;;;;;;;;;13.67;13.33;;;;;14.11;57.93;99593.50;5082932;27;45477;-84
2022/04/24 05:22:49;;;;;;;;;17.33;16.00;;;;;14.48;57.93;99666.56;5088140;27;45441;-85
2022/04/24 05:25:14;;;;;;;;;17.67;15.67;;;;;14.44;58.06;99658.88;5084930;27;48358;-84
2022/04/24 05:27:40;;;;;;;;;20.33;16.67;;;;;14.24;57.85;99617.53;5079111;27;45580;-85
2022/04/24 05:30:08;;;;;;;;;15.00;14.33;;;;;14.83;57.60;99727.38;5087896;27;45374;-85
2022/04/24 05:32:48;;;;;;;;;16.00;13.33;;;;;14.75;58.24;99708.38;5082361;27;45608;-84
2022/04/24 05:35:16;;;;;;;;;16.00;15.33;;;;;14.85;57.76;99728.13;5084467;27;45334;-84
2022/04/24 05:37:41;;;;;;;;;15.33;14.00;;;;;14.86;57.60;99728.97;5088940;27;45495;-84
2022/04/24 05:40:08;;;;;;;;;13.00;12.67;;;;;14.86;57.66;99724.44;5090896;27;45430;-84
2022/04/24 05:42:34;;;;;;;;;15.00;14.00;;;;;14.19;57.36;99619.69;5079563;27;45447;-91
2022/04/24 05:45:09;;;;;;;;;19.00;17.33;;;;;14.17;57.87;99625.19;5081092;27;47135;-92
2022/04/24 05:47:34;;;;;;;;;18.33;16.33;;;;;14.13;57.60;99613.84;5076558;28;45515;-92
2022/04/24 05:49:59;;;;;;;;;14.00;14.00;;;;;14.13;57.44;99611.16;5093575;27;45393;-92
2022/04/24 05:52:27;;;;;;;;;20.33;17.67;;;;;14.26;57.59;99624.50;5070640;28;45372;-92
2022/04/24 05:54:52;;;;;;;;;17.33;15.67;;;;;14.46;57.33;99657.78;5075807;27;47197;-92
2022/04/24 05:57:18;;;;;;;;;18.00;18.00;;;;;14.69;57.14;99700.78;5081132;27;45538;-92
2022/04/24 05:59:43;;;;;;;;;17.67;15.67;;;;;14.39;57.68;99651.19;5109809;27;45486;-93
2022/04/24 06:02:08;;;;;;;;;17.00;17.00;;;;;14.86;57.79;99728.97;5069006;27;45636;-92
2022/04/24 06:04:34;;;;;;;;;18.67;16.67;;;;;14.34;57.32;99630.09;5073862;27;47918;-92
2022/04/24 06:06:59;;;;;;;;;20.00;17.33;;;;;14.57;56.98;99665.03;5073434;28;45471;-92
2022/04/24 06:09:24;;;;;;;;;16.67;16.67;;;;;14.53;57.33;99648.28;5068203;27;45626;-92
2022/04/24 06:11:50;;;;;;;;;14.67;13.33;;;;;14.70;57.14;99667.59;5065583;27;45480;-93
2022/04/24 06:14:15;;;;;;;;;20.33;18.67;;;;;14.31;57.02;99608.91;5076212;27;46909;-93
2022/04/24 06:16:41;;;;;;;;;15.00;15.00;;;;;14.59;56.86;99649.69;5080631;27;45446;-92
2022/04/24 06:19:07;;;;;;;;;18.00;17.00;;;;;14.47;56.74;99627.34;5068904;27;45353;-93
2022/04/24 06:21:32;;;;;;;;;17.67;17.67;;;;;14.91;57.06;99695.47;5090833;27;45660;-92
2022/04/24 06:23:57;;;;;;;;;19.67;18.00;;;;;15.06;56.80;99716.69;5078461;28;48126;-93
2022/04/24 06:26:23;;;;;;;;;14.33;12.33;;;;;15.04;57.13;99705.22;5087303;27;45453;-93
2022/04/24 06:28:48;;;;;;;;;21.67;19.00;;;;;14.58;56.68;99618.47;5072837;27;45271;-93
2022/04/24 06:31:13;;;;;;;;;15.33;14.33;;;;;14.26;56.96;99576.25;5082711;27;45618;-94
2022/04/24 06:33:39;;;;;;;;;22.67;18.00;;;;;14.85;56.53;99665.56;5083207;27;47093;-94
2022/04/24 06:36:04;;;;;;;;;19.33;16.33;;;;;14.42;56.60;99591.13;5082891;27;45302;-94
2022/04/24 06:38:29;;;;;;;;;15.67;15.00;;;;;15.32;55.94;99731.56;5083003;27;45578;-94
2022/04/24 06:40:55;;;;;;;;;18.00;15.33;;;;;14.41;56.15;99554.56;5083198;27;45542;-94
2022/04/24 06:43:21;;;;;;;;;18.33;16.33;;;;;15.32;56.13;99715.47;5083024;27;46891;-94
2022/04/24 06:45:46;;;;;;;;;16.67;16.33;;;;;14.92;55.88;99631.91;5083091;27;46022;-93
2022/04/24 06:48:15;;;;;;;;;17.33;16.00;;;;;15.33;55.48;99684.94;5101191;27;45397;-94
2022/04/24 06:50:42;;;;;;;;;17.33;17.33;;;;;15.17;55.82;99639.72;5075029;27;45548;-94
2022/04/24 06:53:11;;;;;;;;;19.33;19.00;;;;;16.08;55.36;99776.56;5081978;27;47221;-93
2022/04/24 06:55:39;;;;;;;;;17.00;16.00;;;;;15.53;55.54;99658.31;5082653;27;45512;-94
2022/04/24 06:58:06;;;;;;;;;19.67;16.33;;;;;15.42;55.00;99643.06;5082367;27;45446;-93
2022/04/24 07:00:36;;;;;;;;;23.00;19.00;;;;;16.35;54.28;99771.56;5100920;27;45504;-93
2022/04/24 07:03:08;;;;;;;;;23.33;17.00;;;;;16.00;53.80;99708.16;5082488;27;48277;-93
2022/04/24 07:05:34;;;;;;;;;20.67;19.67;;;;;16.17;53.35;99727.41;5079227;27;45759;-93
2022/04/24 07:07:59;;;;;;;;;20.33;18.33;;;;;15.92;53.05;99680.19;5062055;28;45459;-94
2022/04/24 07:10:24;;;;;;;;;19.33;18.00;;;;;15.98;53.20;99682.38;5072255;27;45485;-94
2022/04/24 07:12:52;;;;;;;;;17.67;17.33;;;;;16.70;53.17;99774.97;5081313;27;48320;-94
2022/04/24 07:15:19;;;;;;;;;20.33;20.33;;;;;16.28;52.85;99680.81;5082465;27;46036;-93
2022/04/24 07:17:45;;;;;;;;;17.33;17.00;;;;;15.76;52.52;99600.88;5079223;27;45460;-94
2022/04/24 07:20:11;;;;;;;;;20.33;19.33;;;;;16.96;52.04;99773.63;5061954;28;45495;-93
2022/04/24 07:22:51;;;;;;;;;30.00;23.00;;;;;16.54;52.23;99700.94;5061592;28;47021;-94
2022/04/24 07:25:24;;;;;;;;;21.33;20.00;;;;;16.94;51.88;99754.06;5062350;27;45424;-93
2022/04/24 07:27:50;;;;;;;;;20.33;20.33;;;;;17.26;51.71;99790.81;5087712;27;45480;-89
2022/04/24 07:30:17;;;;;;;;;24.67;23.00;;;;;17.06;51.16;99747.59;5081329;27;45308;-93
2022/04/24 07:32:54;;;;;;;;;25.00;21.00;;;;;17.52;51.22;99797.47;5081553;27;48484;-91
2022/04/24 07:35:25;;;;;;;;;19.67;19.67;;;;;17.22;50.38;99736.34;5090740;27;45654;-93
2022/04/24 07:37:51;;;;;;;;;24.33;22.33;;;;;17.28;49.68;99725.06;5061443;28;45430;-92
2022/04/24 07:40:26;;;;;;;;;28.67;27.67;;;;;17.49;49.09;99743.00;5067238;27;45555;-92
2022/04/24 07:42:55;;;;;;;;;26.67;24.00;;;;;17.78;48.90;99761.09;5081475;27;47615;-94
2022/04/24 07:45:23;;;;;;;;;27.67;23.67;;;;;18.10;49.67;99802.22;5082624;27;45430;-94
2022/04/24 07:47:49;;;;;;;;;27.00;23.00;;;;;17.79;48.84;99730.47;5082215;27;45477;-94
2022/04/24 07:53:25;;;;;;;;;25.00;22.67;;;;;16.91;47.60;99570.47;5081636;27;45944;-91
2022/04/24 07:55:51;;;;;;;;;22.33;22.33;;;;;17.97;47.24;99741.47;5086780;27;45546;-83
2022/04/24 07:58:17;;;;;;;;;23.33;21.00;;;;;18.24;48.06;99765.03;5086169;27;45368;-87
2022/04/24 08:00:45;;;;;;;;;22.67;22.67;;;;;18.62;47.39;99820.91;5068435;27;45357;-94
2022/04/24 08:03:13;;;;;;;;;23.33;22.00;;;;;17.26;46.65;99559.22;5076142;27;48355;-92
2022/04/24 08:05:43;;;;;;;;;29.00;24.67;;;;;18.79;46.72;99811.25;5060643;28;45417;-93
2022/04/24 08:08:11;;;;;;;;;24.33;21.67;;;;;17.65;46.46;99607.75;5096099;27;45340;-93
2022/04/24 08:10:42;;;;;;;;;27.67;23.33;;;;;17.79;45.72;99622.63;5082382;27;45483;-91
2022/04/24 08:13:08;;;;;;;;;29.67;24.67;;;;;18.77;44.91;99762.78;5071513;27;47707;-90
2022/04/24 08:15:35;;;;;;;;;25.00;25.00;;;;;17.78;45.20;99585.91;5089485;27;45420;-89
2022/04/24 08:18:01;;;;;;;;;21.67;21.00;;;;;17.92;45.57;99580.13;5090538;27;45426;-91
2022/04/24 08:20:27;;;;;;;;;25.67;23.00;;;;;19.29;46.00;99778.63;5071659;27;45629;-89
2022/04/24 08:22:55;;;;;;;;;25.67;21.67;;;;;18.59;44.88;99631.41;5080008;27;46353;-93
2022/04/24 08:25:22;;;;;;;;;23.00;20.33;;;;;18.98;44.38;99643.81;5063107;27;45723;-95
2022/04/24 08:27:49;;;;;;;;;22.67;21.00;;;;;19.37;43.59;99634.69;5072904;27;45486;-85
2022/04/24 08:30:16;;;;;;;;;27.33;23.67;;;;;20.85;42.70;99812.91;5073487;27;45508;-84
2022/04/24 08:32:42;;;;;;;;;26.00;21.00;;;;;21.20;42.11;99778.66;5091196;27;45601;-82
2022/04/24 08:35:10;;;;;;;;;23.00;17.67;;;;;22.25;41.17;99820.91;5083436;27;45700;-83
2022/04/24 08:37:37;;;;;;;;;27.67;22.33;;;;;22.96;39.41;99794.16;5086582;27;45616;-88
2022/04/24 08:40:05;;;;;;;;;24.00;19.67;;;;;23.82;37.89;99806.28;5095862;27;45318;-88
2022/04/24 08:42:31;;;;;;;;;23.00;22.00;;;;;24.26;37.58;99791.28;5094015;27;46397;-88
2022/04/24 08:44:57;;;;;;;;;24.33;22.00;;;;;24.63;35.91;99793.25;5098293;27;45488;-88
2022/04/24 08:47:24;;;;;;;;;20.33;18.00;;;;;25.08;35.33;99805.19;5077001;27;45842;-88
2022/04/24 08:49:56;;;;;;;;;23.67;21.00;;;;;25.33;34.90;99773.06;5096770;27;45880;-87
2022/04/24 08:52:23;;;;;;;;;24.00;23.00;;;;;26.32;34.16;99809.06;5094143;27;46293;-87
2022/04/24 08:54:50;;;;;;;;;22.00;20.67;;;;;26.95;33.00;99811.22;5095648;27;45424;-87
2022/04/24 08:57:17;;;;;;;;;25.67;22.00;;;;;27.12;31.86;99743.41;5093001;27;45464;-86
2022/04/24 08:59:43;;;;;;;;;16.33;16.33;;;;;27.99;30.89;99807.78;5099055;27;45304;-86
2022/04/24 09:02:09;;;;;;;;;20.00;17.33;;;;;28.35;30.13;99780.09;5073958;27;48481;-85
2022/04/24 09:04:38;;;;;;;;;19.00;16.33;;;;;28.87;29.35;99790.53;5090659;27;45370;-85
2022/04/24 09:07:08;;;;;;;;;16.67;14.00;;;;;29.19;29.27;99789.72;5086816;27;45460;-90
2022/04/24 09:09:44;;;;;;;;;20.33;19.33;;;;;28.72;28.21;99675.53;5064865;27;45653;-93
2022/04/24 09:12:15;;;;;;;;;21.33;21.33;;;;;28.31;28.43;99606.16;5075415;27;47641;-92
2022/04/24 09:14:41;;;;;;;;;18.00;16.33;;;;;29.02;28.30;99728.91;5088328;27;45537;-89
2022/04/24 09:17:16;;;;;;;;;16.67;16.67;;;;;29.48;28.15;99811.44;5064606;27;45277;-89
2022/04/24 09:19:42;;;;;;;;;18.33;17.33;;;;;28.53;28.40;99701.91;5066916;28;45480;-89
2022/04/24 09:22:11;;;;;;;;;18.33;18.33;;;;;28.40;28.56;99724.63;5081978;27;46056;-94
2022/04/24 09:24:49;;;;;;;;;20.67;17.67;;;;;28.70;28.70;99826.59;5065026;27;45845;-92
2022/04/24 09:27:30;;;;;;;;;22.67;19.67;;;;;27.97;29.19;99749.59;5087480;27;45503;-92
2022/04/24 09:30:00;;;;;;;;;22.67;19.00;;;;;27.79;28.84;99767.41;5072144;27;45238;-89
2022/04/24 09:32:30;;;;;;;;;23.67;20.67;;;;;27.35;29.42;99735.81;5085863;27;45802;-86
2022/04/24 09:34:57;;;;;;;;;19.00;17.33;;;;;27.12;29.26;99741.50;5083880;27;45435;-88
2022/04/24 09:37:23;;;;;;;;;18.33;18.33;;;;;27.34;29.66;99799.78;5091269;27;45512;-88
2022/04/24 09:39:50;;;;;;;;;19.33;16.67;;;;;27.49;29.50;99794.22;5069257;27;45495;-88
2022/04/24 09:42:17;;;;;;;;;19.00;18.67;;;;;27.99;28.49;99843.38;5068455;27;48341;-90
2022/04/24 09:44:48;;;;;;;;;22.00;20.33;;;;;28.18;28.62;99826.19;5061430;27;45479;-85
2022/04/24 09:47:17;;;;;;;;;17.33;16.67;;;;;28.17;28.11;99749.69;5072014;27;45534;-85
2022/04/24 09:49:48;;;;;;;;;22.33;18.67;;;;;29.33;27.63;99834.47;5092681;27;45636;-85
2022/04/24 09:52:25;;;;;;;;;16.67;16.67;;;;;29.52;27.05;99706.44;5077912;27;48215;-86
2022/04/24 09:54:52;;;;;;;;;17.67;16.00;;;;;30.69;25.17;99762.13;5094530;27;45426;-85
2022/04/24 09:57:21;;;;;;;;;17.33;17.33;;;;;31.62;24.76;99743.13;5071557;27;45373;-86
2022/04/24 09:59:48;;;;;;;;;20.33;18.33;;;;;31.91;23.83;99719.44;5068997;27;45562;-84
2022/04/24 10:02:18;;;;;;;;;16.67;16.67;;;;;32.88;23.77;99838.00;5071995;27;47397;-84
2022/04/24 10:04:46;;;;;;;;;20.67;18.00;;;;;33.41;22.37;99805.91;5085243;27;45491;-84
2022/04/24 10:07:16;;;;;;;;;18.33;15.67;;;;;33.93;22.00;99814.31;5068849;27;45932;-85
2022/04/24 10:09:44;;;;;;;;;15.33;15.00;;;;;33.30;20.76;99702.66;5081505;27;45346;-85
2022/04/24 10:12:18;;;;;;;;;17.00;16.00;;;;;33.95;21.87;99819.59;5072973;27;48158;-85
2022/04/24 10:14:50;;;;;;;;;15.67;14.33;;;;;34.21;21.57;99857.00;5095916;27;45221;-84
2022/04/24 10:17:54;;;;;;;;;14.00;14.00;;;;;35.06;20.67;99772.22;5083475;27;45562;-85
2022/04/24 10:20:38;;;;;;;;;19.00;17.33;;;;;36.39;19.56;99856.53;5075614;27;45588;-85
2022/04/24 10:23:03;;;;;;;;;16.00;16.00;;;;;36.76;18.90;99809.44;5081275;27;45617;-84
2022/04/24 10:25:37;;;;;;;;;18.33;16.33;;;;;37.51;19.14;99865.13;5089082;27;45550;-85
2022/04/24 10:28:13;;;;;;;;;16.00;15.33;;;;;37.74;18.47;99863.94;5066802;27;45553;-86
2022/04/24 10:30:39;;;;;;;;;14.00;12.67;;;;;37.13;18.79;99742.84;5070970;28;45537;-85
2022/04/24 10:33:24;;;;;;;;;18.67;16.00;;;;;38.16;18.10;99858.34;5086176;27;46346;-85
2022/04/24 10:35:56;;;;;;;;;15.00;15.00;;;;;37.82;18.41;99848.69;5092330;27;45336;-85
2022/04/24 10:38:23;;;;;;;;;14.00;13.00;;;;;37.25;18.90;99870.50;5081247;27;45375;-85
2022/04/24 10:41:06;;;;;;;;;15.33;14.67;;;;;36.32;19.94;99873.38;5084812;27;45441;-84
2022/04/24 10:43:36;;;;;;;;;16.67;15.67;;;;;35.53;19.92;99796.78;5077527;27;48122;-85
2022/04/24 10:46:02;;;;;;;;;17.67;16.67;;;;;35.58;19.19;99793.25;5085675;27;45550;-88
2022/04/24 10:48:37;;;;;;;;;15.67;15.00;;;;;35.15;19.96;99700.66;5071773;27;45318;-94
2022/04/24 10:51:11;;;;;;;;;19.00;17.00;;;;;35.64;19.79;99759.84;5082075;27;45390;-93
2022/04/24 10:53:59;;;;;;;;;16.33;15.67;;;;;36.46;19.95;99855.22;5091421;27;45397;-93
2022/04/24 10:56:34;;;;;;;;;17.00;15.00;;;;;35.80;18.87;99730.38;5084860;27;45242;-96
2022/04/24 11:02:33;;;;;;;;;14.67;14.67;;;;;37.41;19.34;99890.09;5102140;27;45412;-96
2022/04/24 11:05:14;;;;;;;;;18.33;16.00;;;;;36.35;19.18;99686.88;5083737;27;46120;-96
2022/04/24 11:08:07;;;;;;;;;17.00;14.33;;;;;36.35;19.51;99772.91;5083938;27;45433;-96
2022/04/24 11:10:46;;;;;;;;;15.00;15.00;;;;;35.15;19.06;99723.63;5081917;27;45451;-95
2022/04/24 11:13:13;;;;;;;;;13.67;13.67;;;;;35.50;19.53;99916.50;5081567;27;45659;-89
2022/04/24 11:15:42;;;;;;;;;16.33;16.33;;;;;34.67;19.81;99907.75;5079372;27;45483;-85
2022/04/24 11:18:26;;;;;;;;;20.00;16.67;;;;;33.28;20.86;99811.69;5085785;27;45515;-87
2022/04/24 11:20:59;;;;;;;;;16.33;16.33;;;;;33.08;21.53;99908.66;5086481;27;45595;-85
2022/04/24 11:23:26;;;;;;;;;18.33;14.67;;;;;32.31;21.73;99900.94;5089362;27;45553;-85
2022/04/24 11:25:53;;;;;;;;;14.33;14.33;;;;;31.36;21.84;99869.00;5084294;27;46901;-85
2022/04/24 11:28:19;;;;;;;;;22.67;18.33;;;;;30.50;23.04;99815.38;5091475;27;45541;-84